• Join FlightAware (Why Join?)
  • Login
  • US Flag 
02:49PM EDT


 

Airport Tracker/Info


-or-


 

Live Flight TrackerFlight Track Log ✈ SKW6345 ✈ 16-Jun-2013 ✈ KSFO - KBZN

Flight Track Log - Related Links

Times and Time Zones

All times are in EDT time to prevent confusion due to time zone crossing. See the SKW6345 flight status page for this flight to view local times or setup timezone preferences in your user account.

Time Position Orientation Groundspeed Altitude Reporting Facility
EDT Latitude Longitude Course Direction KTS MPH feet Rate Location/Type
11:33AM 37.6667 -122.3500 38° Northeast 180 207 1,800  Level Northern Cal TRACON
11:34AM 37.7167 -122.3000 38° Northeast 230 265 4,100 2,280 Climbing Northern Cal TRACON
11:35AM 37.7833 -122.2833 11° North 263 303 6,400 2,160 Climbing Northern Cal TRACON
11:36AM 37.6981 -122.2853 38° Northeast  Level FlightAware Approximate
11:36AM 37.8667 -122.2667 North 278 320 8,500  Level Northern Cal TRACON
11:37AM 37.8043 -122.1790 38° Northeast  Level FlightAware Approximate
11:37AM 37.8903 -122.2222 56° Northeast 280 322 9,900  Level Oakland Center
11:38AM 37.9106 -122.0727 38° Northeast  Level FlightAware Approximate
11:38AM 37.9522 -122.1506 42° Northeast 300 345 11,500  Level Oakland Center
11:39AM 38.0308 -122.0550 44° Northeast 327 376 13,700 1,920 Climbing Oakland Center
11:40AM 38.0997 -121.9722 43° Northeast 341 392 15,500 1,740 Climbing Oakland Center
11:41AM 38.1706 -121.8858 44° Northeast 353 406 17,300 1,440 Climbing Oakland Center
11:42AM 38.2422 -121.7972 44° Northeast 362 417 18,500 1,080 Climbing Oakland Center
11:43AM 38.3200 -121.7061 43° Northeast 380 437 19,500 1,140 Climbing Oakland Center
11:44AM 38.4003 -121.6108 43° Northeast 396 456 20,900 1,320 Climbing Oakland Center
11:45AM 38.4861 -121.5106 42° Northeast 399 459 22,300 1,080 Climbing Oakland Center
11:46AM 38.5631 -121.4169 44° Northeast 403 464 23,200 900 Climbing Oakland Center
11:47AM 38.6464 -121.3186 43° Northeast 410 472 24,200 1,080 Climbing Oakland Center
11:48AM 38.7419 -121.2039 43° Northeast 416 479 25,400 1,020 Climbing Oakland Center
11:49AM 38.8256 -121.1033 43° Northeast 414 476 26,300 720 Climbing Oakland Center
11:50AM 38.9106 -121.0000 43° Northeast 417 480 26,900 540 Climbing Oakland Center
11:51AM 38.9972 -120.8922 44° Northeast 430 495 27,500 540 Climbing Oakland Center
11:52AM 39.0853 -120.7844 44° Northeast 436 502 28,100 540 Climbing Oakland Center
11:53AM 39.1742 -120.6764 43° Northeast 439 505 28,700 660 Climbing Oakland Center
11:54AM 39.2814 -120.5442 44° Northeast 443 510 29,500 660 Climbing Oakland Center
11:55AM 39.3706 -120.4344 44° Northeast 442 509 30,100 540 Climbing Oakland Center
11:56AM 39.4606 -120.3222 44° Northeast 446 513 30,600 420 Climbing Oakland Center
11:57AM 39.5517 -120.2097 44° Northeast 452 520 31,000 360 Climbing Oakland Center
11:58AM 39.6364 -120.1042 44° Northeast 455 524 31,400 420 Climbing Oakland Center
11:59AM 39.7300 -119.9894 43° Northeast 460 529 31,900 480 Climbing Oakland Center
12:00PM 39.8183 -119.8744 45° Northeast 451 519 32,400 480 Climbing Oakland Center
12:01PM 39.9278 -119.7369 44° Northeast 453 521 33,000 240 Climbing Oakland Center
12:02PM 40.0211 -119.6203 44° Northeast 460 529 33,000  Level Oakland Center
12:03PM 40.1142 -119.5011 44° Northeast 463 533 33,000  Level Oakland Center
12:04PM 40.2072 -119.3803 45° Northeast 468 539 33,000  Level Oakland Center
12:05PM 40.3028 -119.2586 44° Northeast 475 547 33,000  Level Oakland Center
12:06PM 40.3961 -119.1367 45° Northeast 473 544 33,000  Level Oakland Center
12:07PM 40.4908 -119.0133 45° Northeast 477 549 33,000  Level Oakland Center
12:08PM 40.5850 -118.8908 45° Northeast 476 548 33,000  Level Oakland Center
12:09PM 40.6792 -118.7675 45° Northeast 477 549 33,000  Level Oakland Center
12:10PM 40.7228 -118.7119 44° Northeast 478 550 33,000  Level Salt Lake Center
12:11PM 40.8133 -118.5928 45° Northeast 480 552 33,000  Level Salt Lake Center
12:12PM 40.9208 -118.4522 45° Northeast 484 557 33,000  Level Salt Lake Center
12:13PM 41.0119 -118.3314 45° Northeast 484 557 33,000  Level Salt Lake Center
12:14PM 41.1178 -118.1903 45° Northeast 482 555 33,000  Level Salt Lake Center
12:15PM 41.2083 -118.0686 45° Northeast 483 556 33,000  Level Salt Lake Center
12:16PM 41.3000 -117.9472 45° Northeast 483 556 33,000  Level Salt Lake Center
12:17PM 41.4056 -117.8044 45° Northeast 484 557 33,000  Level Salt Lake Center
12:18PM 41.4972 -117.6811 45° Northeast 486 559 33,000  Level Salt Lake Center
12:19PM 41.6011 -117.5369 46° Northeast 484 557 33,000  Level Salt Lake Center
12:20PM 41.6925 -117.4125 45° Northeast 487 560 33,000  Level Salt Lake Center
12:21PM 41.7981 -117.2633 46° Northeast 487 560 33,000  Level Salt Lake Center
12:22PM 41.8886 -117.1392 46° Northeast 485 558 33,000  Level Salt Lake Center
12:23PM 41.9933 -116.9928 46° Northeast 483 556 33,000  Level Salt Lake Center
12:24PM 42.0828 -116.8656 47° Northeast 488 562 33,000  Level Salt Lake Center
12:25PM 42.1728 -116.7397 46° Northeast 485 558 33,000  Level Salt Lake Center
12:26PM 42.2758 -116.5967 46° Northeast 487 560 33,000  Level Salt Lake Center
12:27PM 42.3806 -116.4483 46° Northeast 488 562 33,000  Level Salt Lake Center
12:28PM 42.4711 -116.3192 46° Northeast 492 566 33,000  Level Salt Lake Center
12:29PM 42.5753 -116.1703 46° Northeast 489 563 33,000  Level Salt Lake Center
12:30PM 42.6653 -116.0414 46° Northeast 492 566 33,000  Level Salt Lake Center
12:31PM 42.7542 -115.9133 47° Northeast 487 560 33,000  Level Salt Lake Center
12:33PM 42.8583 -115.7622 47° Northeast 490 564 33,000  Level Salt Lake Center
12:34PM 42.9469 -115.6328 47° Northeast 487 560 33,000  Level Salt Lake Center
12:35PM 43.0506 -115.4817 47° Northeast 487 560 33,000  Level Salt Lake Center
12:36PM 43.1397 -115.3522 47° Northeast 490 564 33,000  Level Salt Lake Center
12:37PM 43.2428 -115.1997 47° Northeast 490 564 33,000  Level Salt Lake Center
12:38PM 43.3308 -115.0703 47° Northeast 486 559 33,000  Level Salt Lake Center
12:39PM 43.4328 -114.9169 47° Northeast 487 560 33,000  Level Salt Lake Center
12:40PM 43.5208 -114.7850 47° Northeast 488 562 33,000  Level Salt Lake Center
12:41PM 43.6236 -114.6300 47° Northeast 490 564 33,000  Level Salt Lake Center
12:42PM 43.7114 -114.4972 48° Northeast 490 564 33,000  Level Salt Lake Center
12:43PM 43.8136 -114.3417 48° Northeast 490 564 33,000  Level Salt Lake Center
12:44PM 43.9019 -114.2081 47° Northeast 494 568 33,000  Level Salt Lake Center
12:45PM 44.0036 -114.0508 48° Northeast 491 565 33,000  Level Salt Lake Center
12:46PM 44.0933 -113.9117 48° Northeast 491 565 33,000  Level Salt Lake Center
12:47PM 44.1781 -113.7750 49° Northeast 487 560 33,000  Level Salt Lake Center
12:48PM 44.2803 -113.6167 48° Northeast 492 566 33,000  Level Salt Lake Center
12:49PM 44.3658 -113.4800 49° Northeast 489 563 33,000  Level Salt Lake Center
12:50PM 44.4697 -113.3203 48° Northeast 495 570 33,000  Level Salt Lake Center
12:51PM 44.5556 -113.1842 48° Northeast 490 564 33,000  Level Salt Lake Center
12:52PM 44.6547 -113.0228 49° Northeast 488 562 33,000 -60 Level Salt Lake Center
12:53PM 44.7383 -112.8878 49° Northeast 480 552 32,900 -660 Descending Salt Lake Center
12:54PM 44.8389 -112.7278 48° Northeast 487 560 31,700 -1,800 Descending Salt Lake Center
12:55PM 44.9233 -112.5892 49° Northeast 486 559 29,300 -2,520 Descending Salt Lake Center
12:56PM 45.0186 -112.4344 49° Northeast 466 536 26,500 -2,460 Descending Salt Lake Center
12:57PM 45.0961 -112.3075 49° Northeast 449 517 24,300 -2,040 Descending Salt Lake Center
12:58PM 45.1725 -112.1822 49° Northeast 441 507 22,400 -1,140 Descending Salt Lake Center
12:59PM 45.2553 -112.0425 50° Northeast 443 510 22,000 -840 Descending Salt Lake Center
01:00PM 45.3344 -111.9122 49° Northeast 439 505 20,700 -2,220 Descending Salt Lake Center
01:01PM 45.4125 -111.7819 49° Northeast 435 501 17,500 -3,540 Descending Salt Lake Center
01:02PM 45.5028 -111.6322 49° Northeast 420 483 13,500 -3,180 Descending Salt Lake Center
01:04PM 45.5728 -111.5139 50° Northeast 405 466 11,000 -1,500 Descending Salt Lake Center
01:05PM 45.6442 -111.4469 33° Northeast 343 395 10,400 -1,020 Descending Salt Lake Center
01:06PM 45.7156 -111.3967 26° Northeast 305 351 9,000 -960 Descending Salt Lake Center
01:07PM 45.7778 -111.3594 23° Northeast 265 305 8,500 -540 Descending Salt Lake Center